Time;durP1;ratioP1;P1;durP2;ratioP2;P2;SDS_P1;SDS_P2;PMS_P1;PMS_P2;Temp;Humidity;BMP_temperature;BMP_pressure;BME280_temperature;BME280_humidity;BME280_pressure;Samples;Min_cycle;Max_cycle;Signal;HPM_P1;HPM_P2
2021/10/25 00:00:36;;;;;;;10.70;7.30;;;4.90;1.00;;;;;;5082767;27;20233;-75
2021/10/25 00:03:02;;;;;;;8.90;6.65;;;4.90;1.00;;;;;;5085201;27;20300;-76
2021/10/25 00:05:29;;;;;;;10.45;7.45;;;4.90;1.00;;;;;;5104607;27;20940;-76
2021/10/25 00:07:56;;;;;;;10.48;7.28;;;4.90;1.00;;;;;;5101618;27;21138;-76
2021/10/25 00:10:23;;;;;;;9.65;7.22;;;4.90;1.00;;;;;;5115179;27;20288;-75
2021/10/25 00:12:51;;;;;;;8.70;7.47;;;4.90;1.00;;;;;;5108281;27;20226;-77
2021/10/25 00:15:18;;;;;;;11.48;7.85;;;4.90;1.00;;;;;;5103615;27;20230;-77
2021/10/25 00:17:45;;;;;;;7.80;6.82;;;4.90;1.00;;;;;;5103340;27;21147;-77
2021/10/25 00:20:13;;;;;;;8.85;6.93;;;4.90;1.00;;;;;;5101620;27;20223;-76
2021/10/25 00:22:41;;;;;;;8.73;6.68;;;4.90;1.00;;;;;;5103768;27;20223;-76
2021/10/25 00:25:08;;;;;;;7.80;7.00;;;4.90;1.00;;;;;;5084299;27;20689;-76
2021/10/25 00:27:35;;;;;;;10.70;8.25;;;4.80;1.00;;;;;;5084317;27;21191;-76
2021/10/25 00:30:03;;;;;;;12.43;7.30;;;4.80;1.00;;;;;;5098115;27;20231;-77
2021/10/25 00:32:30;;;;;;;11.38;6.90;;;4.80;1.00;;;;;;5097451;27;20230;-76
2021/10/25 00:35:03;;;;;;;8.07;7.20;;;4.70;1.00;;;;;;5099882;27;20295;-76
2021/10/25 00:37:29;;;;;;;13.65;7.15;;;4.70;1.00;;;;;;5106038;27;20753;-76
2021/10/25 00:39:56;;;;;;;10.38;7.22;;;4.60;1.00;;;;;;5103292;27;20230;-76
2021/10/25 00:42:23;;;;;;;9.30;7.03;;;4.60;1.00;;;;;;5106721;27;20226;-76
2021/10/25 00:44:49;;;;;;;8.93;7.40;;;4.50;1.00;;;;;;5100795;27;21190;-76
2021/10/25 00:47:17;;;;;;;10.43;7.72;;;4.50;1.00;;;;;;5104262;27;20741;-77
2021/10/25 00:49:45;;;;;;;8.75;7.15;;;4.50;1.00;;;;;;5103324;27;20347;-76
2021/10/25 00:52:12;;;;;;;7.90;7.05;;;4.60;1.00;;;;;;5103881;27;20328;-76
2021/10/25 00:54:38;;;;;;;9.05;7.00;;;4.50;1.00;;;;;;5088745;27;20233;-76
2021/10/25 00:57:05;;;;;;;8.35;7.13;;;4.50;1.00;;;;;;5106421;27;20223;-76
2021/10/25 00:59:32;;;;;;;9.80;6.93;;;4.50;1.00;;;;;;5106025;27;20220;-76
2021/10/25 01:01:59;;;;;;;7.85;5.93;;;4.50;1.00;;;;;;5101473;27;20223;-76
2021/10/25 01:04:27;;;;;;;10.18;7.20;;;4.50;1.00;;;;;;5106366;27;20243;-77
2021/10/25 01:06:55;;;;;;;7.63;6.88;;;4.40;1.00;;;;;;5084451;27;20863;-77
2021/10/25 01:09:23;;;;;;;8.40;6.82;;;4.40;1.00;;;;;;5103676;27;20616;-76
2021/10/25 01:11:50;;;;;;;9.30;6.80;;;4.30;1.00;;;;;;5102257;27;20218;-76
2021/10/25 01:14:17;;;;;;;9.90;7.60;;;4.30;1.00;;;;;;5089912;27;20235;-76
2021/10/25 01:16:45;;;;;;;10.55;7.30;;;4.30;1.00;;;;;;5104885;27;21310;-76
2021/10/25 01:19:12;;;;;;;15.43;8.38;;;4.30;1.00;;;;;;5104819;27;20825;-76
2021/10/25 01:21:40;;;;;;;8.32;6.55;;;4.30;1.00;;;;;;5104460;27;20503;-76
2021/10/25 01:24:07;;;;;;;8.60;6.65;;;4.30;1.00;;;;;;5108422;27;20227;-76
2021/10/25 01:26:33;;;;;;;10.98;7.28;;;4.30;1.00;;;;;;5109478;27;20214;-76
2021/10/25 01:29:00;;;;;;;8.10;6.72;;;4.30;1.00;;;;;;5114183;27;20224;-76
2021/10/25 01:31:27;;;;;;;10.00;6.55;;;4.30;1.00;;;;;;5116785;27;20300;-76
2021/10/25 01:33:54;;;;;;;6.85;6.15;;;4.30;1.00;;;;;;5105158;27;20459;-76
2021/10/25 01:36:22;;;;;;;7.38;6.30;;;4.20;1.00;;;;;;5105629;27;20215;-76
2021/10/25 01:38:51;;;;;;;8.48;6.63;;;4.20;1.00;;;;;;5107474;27;20224;-76
2021/10/25 01:41:18;;;;;;;10.68;7.35;;;4.20;1.00;;;;;;5109715;27;20219;-76
2021/10/25 01:43:46;;;;;;;8.75;6.82;;;4.20;1.00;;;;;;5097271;27;20318;-76
2021/10/25 01:46:13;;;;;;;8.25;7.40;;;4.10;1.00;;;;;;5116108;27;20230;-75
2021/10/25 01:48:40;;;;;;;10.52;6.68;;;4.10;1.00;;;;;;5110691;27;20215;-76
2021/10/25 01:51:06;;;;;;;8.43;6.47;;;4.10;1.00;;;;;;5102438;27;20219;-76
2021/10/25 01:53:36;;;;;;;10.75;7.55;;;4.10;1.00;;;;;;5107940;27;20828;-76
2021/10/25 01:56:05;;;;;;;12.40;7.00;;;4.00;1.00;;;;;;5102119;27;20389;-78
2021/10/25 01:58:32;;;;;;;8.73;6.90;;;4.00;1.00;;;;;;5105457;27;20224;-77
2021/10/25 02:00:59;;;;;;;9.70;6.72;;;4.00;1.00;;;;;;5104808;27;20220;-77
2021/10/25 02:03:27;;;;;;;8.88;7.43;;;4.00;1.00;;;;;;5103702;27;20349;-77
2021/10/25 02:05:54;;;;;;;7.93;6.85;;;3.90;1.00;;;;;;5108489;27;21089;-77
2021/10/25 02:08:22;;;;;;;8.30;7.50;;;4.00;1.00;;;;;;5106077;27;20230;-77
2021/10/25 02:10:49;;;;;;;9.77;7.05;;;3.90;1.00;;;;;;5111646;27;20222;-77
2021/10/25 02:13:17;;;;;;;11.25;7.60;;;3.90;1.00;;;;;;5103705;27;20222;-77
2021/10/25 02:15:45;;;;;;;10.70;7.68;;;3.90;1.00;;;;;;5108265;27;20223;-77
2021/10/25 02:18:12;;;;;;;11.68;7.57;;;3.90;1.00;;;;;;5107178;27;20222;-77
2021/10/25 02:20:39;;;;;;;13.00;9.00;;;3.90;1.00;;;;;;5106147;27;20288;-77
2021/10/25 02:23:06;;;;;;;10.02;6.50;;;3.90;1.00;;;;;;5107311;27;20215;-78
2021/10/25 02:25:34;;;;;;;11.02;6.82;;;3.90;1.00;;;;;;5112539;27;20220;-76
2021/10/25 02:28:01;;;;;;;13.27;7.70;;;3.80;1.00;;;;;;5122647;27;20231;-77
2021/10/25 02:30:29;;;;;;;10.00;7.25;;;3.80;1.00;;;;;;5092457;27;20222;-77
2021/10/25 02:32:56;;;;;;;9.35;8.20;;;3.70;1.00;;;;;;5106369;27;20220;-77
2021/10/25 02:35:23;;;;;;;9.43;7.53;;;3.60;1.00;;;;;;5105808;27;21098;-77
2021/10/25 02:37:49;;;;;;;10.02;7.32;;;3.60;1.00;;;;;;5109257;27;20913;-77
2021/10/25 02:40:16;;;;;;;9.05;7.15;;;3.60;1.00;;;;;;5107261;27;20229;-77
2021/10/25 02:42:43;;;;;;;8.85;7.25;;;3.60;1.00;;;;;;5107317;27;20223;-77
2021/10/25 02:45:10;;;;;;;12.60;7.90;;;3.50;1.00;;;;;;5105527;27;20231;-77
2021/10/25 02:47:38;;;;;;;9.43;7.25;;;3.50;1.00;;;;;;5103837;27;21195;-77
2021/10/25 02:50:05;;;;;;;13.02;7.30;;;3.50;1.00;;;;;;5105899;27;20238;-76
2021/10/25 02:52:32;;;;;;;11.02;7.60;;;3.40;1.00;;;;;;5103239;27;20226;-76
2021/10/25 02:54:59;;;;;;;8.70;7.80;;;3.40;1.00;;;;;;5108081;27;20251;-76
2021/10/25 02:57:25;;;;;;;8.75;7.22;;;3.40;1.00;;;;;;5108362;27;20223;-76
2021/10/25 02:59:52;;;;;;;13.77;8.38;;;3.40;1.00;;;;;;5110016;27;20305;-77
2021/10/25 03:02:19;;;;;;;13.55;7.28;;;3.30;1.00;;;;;;5107103;27;20722;-73
2021/10/25 03:04:47;;;;;;;8.90;6.80;;;3.30;1.00;;;;;;5107900;27;21026;-76
2021/10/25 03:07:14;;;;;;;11.30;7.97;;;3.30;1.00;;;;;;5105988;27;20219;-76
2021/10/25 03:09:41;;;;;;;13.07;8.02;;;3.30;1.00;;;;;;5108498;27;20222;-76
2021/10/25 03:12:08;;;;;;;9.40;7.05;;;3.30;1.00;;;;;;5092276;27;20227;-76
2021/10/25 03:14:35;;;;;;;13.98;8.25;;;3.30;1.00;;;;;;5088756;27;20219;-76
2021/10/25 03:17:02;;;;;;;10.98;8.38;;;3.30;1.00;;;;;;5106255;27;20270;-76
2021/10/25 03:19:28;;;;;;;8.68;7.15;;;3.30;1.00;;;;;;5110945;27;20226;-75
2021/10/25 03:21:56;;;;;;;11.77;8.45;;;3.20;1.00;;;;;;5091436;27;20222;-76
2021/10/25 03:24:23;;;;;;;11.73;7.80;;;3.30;1.00;;;;;;5115012;27;20222;-76
2021/10/25 03:26:50;;;;;;;10.05;7.57;;;3.30;1.00;;;;;;5119840;27;20321;-76
2021/10/25 03:29:17;;;;;;;17.20;8.23;;;3.30;1.00;;;;;;5110628;27;20243;-77
2021/10/25 03:31:43;;;;;;;9.18;7.10;;;3.30;1.00;;;;;;5110516;27;20644;-76
2021/10/25 03:34:11;;;;;;;8.27;7.20;;;3.20;1.00;;;;;;5091931;27;20300;-76
2021/10/25 03:36:39;;;;;;;10.55;7.78;;;3.20;1.00;;;;;;5105465;27;20226;-76
2021/10/25 03:39:07;;;;;;;10.40;7.60;;;3.10;1.00;;;;;;5104992;27;20233;-76
2021/10/25 03:41:36;;;;;;;9.95;7.20;;;3.10;1.00;;;;;;5087381;27;20220;-77
2021/10/25 03:44:08;;;;;;;14.00;8.00;;;3.10;1.00;;;;;;5107531;27;20715;-76
2021/10/25 03:46:39;;;;;;;9.07;8.18;;;3.10;1.00;;;;;;5104193;27;20705;-76
2021/10/25 03:49:10;;;;;;;9.88;7.68;;;3.10;1.00;;;;;;5107464;27;20259;-76
2021/10/25 03:51:40;;;;;;;15.60;8.10;;;3.10;1.00;;;;;;5107641;27;20226;-76
2021/10/25 03:54:21;;;;;;;8.95;7.05;;;3.10;1.00;;;;;;5087047;27;20251;-78
2021/10/25 03:57:07;;;;;;;11.63;9.02;;;3.00;1.00;;;;;;5105856;27;20214;-76
2021/10/25 03:59:42;;;;;;;11.98;8.50;;;3.10;1.00;;;;;;5105530;27;20222;-77
2021/10/25 04:13:46;;;;;;;13.63;8.38;;;3.10;1.00;;;;;;5108916;27;20223;-79
2021/10/25 04:27:16;;;;;;;12.07;10.20;;;3.20;1.00;;;;;;5111746;27;20247;-79
2021/10/25 04:29:46;;;;;;;15.85;10.90;;;3.20;1.00;;;;;;5109327;27;21563;-78
2021/10/25 04:32:13;;;;;;;15.25;11.23;;;3.20;1.00;;;;;;5106351;27;20689;-77
2021/10/25 04:34:39;;;;;;;16.13;10.82;;;3.30;1.00;;;;;;5105588;27;20214;-77
2021/10/25 04:37:06;;;;;;;12.23;10.57;;;3.30;1.00;;;;;;5107087;27;20583;-78
2021/10/25 04:39:33;;;;;;;10.95;9.38;;;3.30;1.00;;;;;;5111674;27;20229;-80
2021/10/25 04:41:59;;;;;;;13.98;12.00;;;3.30;1.00;;;;;;5109757;27;20219;-80
2021/10/25 04:44:30;;;;;;;21.27;14.55;;;3.30;1.00;;;;;;5110432;27;20238;-80
2021/10/25 04:46:56;;;;;;;19.00;12.95;;;3.30;1.00;;;;;;5108445;27;20228;-79
2021/10/25 04:49:23;;;;;;;14.60;10.10;;;3.30;1.00;;;;;;5086019;27;20258;-78
2021/10/25 04:51:50;;;;;;;13.75;9.82;;;3.30;1.00;;;;;;5089277;27;20223;-82
2021/10/25 04:54:16;;;;;;;13.40;10.02;;;3.30;1.00;;;;;;5108473;27;20223;-79
2021/10/25 04:56:43;;;;;;;11.10;9.25;;;3.30;1.00;;;;;;5109079;27;20226;-79
2021/10/25 04:59:10;;;;;;;18.27;9.48;;;3.30;1.00;;;;;;5106823;27;20689;-80
2021/10/25 05:01:38;;;;;;;11.13;9.32;;;3.30;1.00;;;;;;5089829;27;20792;-79
2021/10/25 05:04:05;;;;;;;12.38;7.82;;;3.20;1.00;;;;;;5106190;27;21036;-78
2021/10/25 05:06:31;;;;;;;14.30;7.45;;;3.30;1.00;;;;;;5099771;27;20234;-78
2021/10/25 05:08:58;;;;;;;11.57;7.95;;;3.30;1.00;;;;;;5101593;27;20220;-78
2021/10/25 05:11:25;;;;;;;12.10;8.73;;;3.30;1.00;;;;;;5100696;27;20973;-78
2021/10/25 05:13:51;;;;;;;17.67;10.10;;;3.30;1.00;;;;;;5103333;27;20219;-78
2021/10/25 05:16:19;;;;;;;15.82;9.13;;;3.30;1.00;;;;;;5104210;27;20226;-77
2021/10/25 05:18:47;;;;;;;12.07;8.80;;;3.30;1.00;;;;;;5105549;27;20226;-77
2021/10/25 05:21:14;;;;;;;14.88;8.60;;;3.20;1.00;;;;;;5107133;27;20400;-78
2021/10/25 05:23:41;;;;;;;10.40;9.35;;;3.20;1.00;;;;;;5104917;27;20231;-78
2021/10/25 05:26:07;;;;;;;14.23;8.70;;;3.20;1.00;;;;;;5100190;27;20226;-80
2021/10/25 05:28:34;;;;;;;12.23;8.40;;;3.20;1.00;;;;;;5106884;27;20230;-79
2021/10/25 05:31:01;;;;;;;11.65;9.23;;;3.20;1.00;;;;;;5107797;27;20285;-81
2021/10/25 05:33:27;;;;;;;14.98;9.75;;;3.20;1.00;;;;;;5116416;27;20275;-79
2021/10/25 05:35:55;;;;;;;10.48;8.07;;;3.20;1.00;;;;;;5108597;27;20596;-82
2021/10/25 05:38:23;;;;;;;10.55;8.70;;;3.20;1.00;;;;;;5111946;27;20225;-79
2021/10/25 05:40:49;;;;;;;12.13;9.50;;;3.20;1.00;;;;;;5104696;27;20663;-79
2021/10/25 05:43:16;;;;;;;13.07;8.80;;;3.20;1.00;;;;;;5113613;27;20253;-78
2021/10/25 05:45:42;;;;;;;14.02;11.50;;;3.30;1.00;;;;;;5111223;27;20241;-79
2021/10/25 05:48:09;;;;;;;14.05;10.07;;;3.30;1.00;;;;;;5117608;27;20226;-80
2021/10/25 05:50:39;;;;;;;14.80;9.77;;;3.30;1.00;;;;;;5117776;27;20219;-79
2021/10/25 05:53:08;;;;;;;16.75;12.35;;;3.30;1.00;;;;;;5114646;27;20229;-80
2021/10/25 05:55:35;;;;;;;14.57;10.45;;;3.30;1.00;;;;;;5121328;27;20219;-79
2021/10/25 05:58:02;;;;;;;14.27;10.30;;;3.30;1.00;;;;;;5095926;27;20215;-79
2021/10/25 06:00:31;;;;;;;14.98;10.18;;;3.30;1.00;;;;;;5091921;27;20764;-79
2021/10/25 06:02:58;;;;;;;13.70;9.75;;;3.40;1.00;;;;;;5110468;27;20215;-79
2021/10/25 06:05:28;;;;;;;15.57;9.05;;;3.40;1.00;;;;;;5115180;27;20231;-80
2021/10/25 06:07:55;;;;;;;12.85;10.45;;;3.50;1.00;;;;;;5099404;27;21001;-79
2021/10/25 06:10:27;;;;;;;15.07;11.13;;;3.40;1.00;;;;;;5109362;27;20223;-79
2021/10/25 06:12:56;;;;;;;18.58;9.93;;;3.40;1.00;;;;;;5112823;27;20223;-79
2021/10/25 06:15:24;;;;;;;14.73;10.55;;;3.40;1.00;;;;;;5122404;27;20253;-77
2021/10/25 06:17:53;;;;;;;10.52;9.43;;;3.40;1.00;;;;;;5120846;27;20249;-79
2021/10/25 06:20:20;;;;;;;14.50;10.38;;;3.40;1.00;;;;;;5119382;27;20231;-79
2021/10/25 06:22:47;;;;;;;10.32;8.57;;;3.40;1.00;;;;;;5115646;27;20239;-79
2021/10/25 06:25:14;;;;;;;11.13;9.93;;;3.40;1.00;;;;;;5115015;27;20231;-79
2021/10/25 06:27:43;;;;;;;15.02;11.25;;;3.40;1.00;;;;;;5115158;27;20231;-79
2021/10/25 06:30:11;;;;;;;13.90;10.60;;;3.40;1.00;;;;;;5128751;27;21134;-78
2021/10/25 06:32:38;;;;;;;17.50;10.50;;;3.40;1.00;;;;;;5111457;27;20353;-78
2021/10/25 06:35:07;;;;;;;15.70;10.10;;;3.50;1.00;;;;;;5120282;27;20208;-78
2021/10/25 06:37:39;;;;;;;18.00;10.57;;;3.50;1.00;;;;;;5114210;27;20219;-78
2021/10/25 06:40:07;;;;;;;18.83;9.90;;;3.60;1.00;;;;;;5113094;27;20219;-78
2021/10/25 06:42:34;;;;;;;17.92;10.70;;;3.60;1.00;;;;;;5097388;27;20264;-78
2021/10/25 06:45:03;;;;;;;24.15;14.30;;;3.60;1.00;;;;;;5112005;27;20227;-79
2021/10/25 06:47:30;;;;;;;21.88;11.50;;;3.70;1.00;;;;;;5110534;27;20758;-79
2021/10/25 06:49:57;;;;;;;11.95;8.85;;;3.80;1.00;;;;;;5123821;27;21417;-79
2021/10/25 06:52:24;;;;;;;13.52;8.90;;;3.80;1.00;;;;;;5111517;27;21248;-78
2021/10/25 06:54:51;;;;;;;14.05;9.52;;;3.80;1.00;;;;;;5115219;27;20241;-78
2021/10/25 06:57:18;;;;;;;11.68;9.82;;;3.80;1.00;;;;;;5115592;27;21148;-80
2021/10/25 06:59:44;;;;;;;13.57;9.38;;;3.90;1.00;;;;;;5115237;27;20455;-78
2021/10/25 07:02:13;;;;;;;13.10;10.15;;;3.90;1.00;;;;;;5111584;27;20223;-78
2021/10/25 07:04:40;;;;;;;12.07;10.07;;;4.00;1.00;;;;;;5115961;27;20237;-78
2021/10/25 07:07:07;;;;;;;15.70;10.57;;;4.00;1.00;;;;;;5113647;27;21214;-80
2021/10/25 07:09:33;;;;;;;16.98;10.40;;;4.00;1.00;;;;;;5115290;27;21888;-80
2021/10/25 07:12:00;;;;;;;15.82;9.45;;;4.10;1.00;;;;;;5114438;27;20307;-79
2021/10/25 07:14:31;;;;;;;14.82;10.88;;;4.20;1.00;;;;;;5113906;27;20223;-79
2021/10/25 07:17:10;;;;;;;13.80;10.70;;;4.30;1.00;;;;;;5114259;27;20211;-77
2021/10/25 07:22:48;;;;;;;14.18;9.10;;;4.50;1.00;;;;;;5111364;27;20241;-78
2021/10/25 07:59:25;;;;;;;11.98;8.43;;;4.80;1.00;;;;;;5113116;27;21135;-79
2021/10/25 08:04:23;;;;;;;8.63;6.90;;;7.00;1.00;;;;;;5110165;27;21624;-78
2021/10/25 08:06:56;;;;;;;8.80;6.15;;;7.20;1.00;;;;;;5114737;27;20329;-78
2021/10/25 08:09:37;;;;;;;8.38;6.60;;;7.40;1.00;;;;;;5090268;27;20239;-79
2021/10/25 08:12:08;;;;;;;7.47;5.68;;;7.50;1.00;;;;;;5110441;27;20223;-79
2021/10/25 08:14:37;;;;;;;8.48;7.47;;;7.70;1.00;;;;;;5111481;27;20216;-79
2021/10/25 08:17:05;;;;;;;7.38;6.30;;;8.10;1.00;;;;;;5111374;27;20223;-79
2021/10/25 08:19:33;;;;;;;7.68;6.43;;;8.60;1.00;;;;;;5110871;27;20287;-79
2021/10/25 08:22:03;;;;;;;8.52;6.18;;;8.90;1.00;;;;;;5110249;27;20223;-78
2021/10/25 08:24:35;;;;;;;8.55;7.10;;;8.90;1.00;;;;;;5111143;27;21027;-78
2021/10/25 08:27:03;;;;;;;11.52;7.50;;;8.90;1.00;;;;;;5112117;27;20236;-79
2021/10/25 08:29:30;;;;;;;12.93;7.13;;;9.10;1.00;;;;;;5110077;27;20286;-77
2021/10/25 08:32:09;;;;;;;8.75;5.90;;;9.20;1.00;;;;;;5111250;27;20713;-78
2021/10/25 08:34:51;;;;;;;9.38;6.15;;;9.30;1.00;;;;;;5109893;27;20246;-78
2021/10/25 08:40:08;;;;;;;7.90;6.03;;;9.00;1.00;;;;;;5113517;27;20854;-79
2021/10/25 08:42:39;;;;;;;7.20;6.15;;;9.00;1.00;;;;;;5107137;27;20713;-79
2021/10/25 08:45:10;;;;;;;9.65;6.40;;;8.90;1.00;;;;;;5112689;27;20985;-77
2021/10/25 08:47:39;;;;;;;8.82;6.15;;;8.90;1.00;;;;;;5114887;27;20636;-78
2021/10/25 08:50:09;;;;;;;6.57;5.87;;;9.00;1.00;;;;;;5123201;27;20243;-78
2021/10/25 08:52:37;;;;;;;9.98;5.65;;;9.00;1.00;;;;;;5109875;27;20461;-78
2021/10/25 08:55:06;;;;;;;11.90;7.85;;;9.00;1.00;;;;;;5111251;27;20230;-78
2021/10/25 08:57:34;;;;;;;11.40;5.60;;;9.00;1.00;;;;;;5113718;27;20643;-78
2021/10/25 09:00:05;;;;;;;7.53;6.07;;;9.20;1.00;;;;;;5108507;27;20230;-77
2021/10/25 09:02:32;;;;;;;6.53;5.40;;;9.70;1.00;;;;;;5116039;27;20469;-78
2021/10/25 09:05:01;;;;;;;11.75;5.65;;;10.10;1.00;;;;;;5109049;27;20223;-78
2021/10/25 09:07:28;;;;;;;8.38;5.28;;;10.10;1.00;;;;;;5110929;27;20257;-79
2021/10/25 09:09:56;;;;;;;7.90;5.63;;;10.20;1.00;;;;;;5112632;27;20334;-78
2021/10/25 09:12:24;;;;;;;7.65;5.40;;;10.20;1.00;;;;;;5090740;27;20460;-78
2021/10/25 09:14:58;;;;;;;6.05;5.20;;;10.20;1.00;;;;;;5112014;27;20230;-78
2021/10/25 09:17:25;;;;;;;6.80;5.50;;;10.20;1.00;;;;;;5109837;27;20290;-79
2021/10/25 09:19:52;;;;;;;8.70;5.73;;;10.30;1.00;;;;;;5101086;27;20484;-79
2021/10/25 09:22:21;;;;;;;11.43;6.50;;;10.50;1.00;;;;;;5104664;27;20471;-78
2021/10/25 09:24:52;;;;;;;7.33;6.07;;;10.60;1.00;;;;;;5117372;27;20439;-79
2021/10/25 09:27:28;;;;;;;8.07;5.90;;;10.70;1.00;;;;;;5128785;27;20469;-79
2021/10/25 09:29:58;;;;;;;6.10;5.27;;;11.00;1.00;;;;;;5118810;27;20446;-77
2021/10/25 09:32:34;;;;;;;6.53;5.93;;;11.00;1.00;;;;;;5113220;27;20457;-78
2021/10/25 09:35:04;;;;;;;7.10;5.77;;;10.90;1.00;;;;;;5111207;27;21046;-77
2021/10/25 09:37:35;;;;;;;8.87;5.60;;;10.80;1.00;;;;;;5108866;27;20473;-80
2021/10/25 09:40:07;;;;;;;7.63;6.10;;;10.60;1.00;;;;;;5124783;27;20469;-81
2021/10/25 09:45:57;;;;;;;7.60;5.70;;;10.60;1.00;;;;;;5111381;27;20505;-78
2021/10/25 09:51:09;;;;;;;11.47;5.83;;;10.80;1.00;;;;;;5091394;27;20528;-77
2021/10/25 09:53:39;;;;;;;6.83;5.67;;;11.00;1.00;;;;;;5112404;27;21732;-78
2021/10/25 09:56:09;;;;;;;7.80;5.57;;;11.10;1.00;;;;;;5109555;27;20763;-78
2021/10/25 09:58:44;;;;;;;5.67;5.10;;;11.10;1.00;;;;;;5112968;27;20451;-78
2021/10/25 10:01:14;;;;;;;7.67;5.73;;;11.20;1.00;;;;;;5109703;27;20477;-79
2021/10/25 10:03:46;;;;;;;7.77;6.00;;;11.30;1.00;;;;;;5112550;27;21368;-79
2021/10/25 10:06:12;;;;;;;8.37;5.23;;;11.40;1.00;;;;;;5116852;27;21062;-79
2021/10/25 10:08:40;;;;;;;7.17;5.60;;;11.60;1.00;;;;;;5112859;27;20481;-80
2021/10/25 10:11:08;;;;;;;11.70;6.40;;;11.70;1.00;;;;;;5109073;27;20493;-79
2021/10/25 10:13:35;;;;;;;7.33;5.40;;;11.70;1.00;;;;;;5112629;27;20466;-79
2021/10/25 10:16:05;;;;;;;6.90;6.10;;;11.80;1.00;;;;;;5108463;27;20434;-79
2021/10/25 10:18:34;;;;;;;8.13;5.17;;;11.80;1.00;;;;;;5110651;27;20519;-80
2021/10/25 10:21:05;;;;;;;5.87;5.17;;;11.80;1.00;;;;;;5108214;27;20452;-76
2021/10/25 10:23:33;;;;;;;8.70;5.87;;;11.80;1.00;;;;;;5114193;27;20467;-80
2021/10/25 10:26:03;;;;;;;8.70;6.90;;;11.90;1.00;;;;;;5136296;27;20465;-78
2021/10/25 10:28:36;;;;;;;6.80;6.10;;;12.00;1.00;;;;;;5114771;27;22227;-78
2021/10/25 10:31:06;;;;;;;8.23;5.60;;;12.10;1.00;;;;;;5114495;27;20535;-77
2021/10/25 10:33:39;;;;;;;6.40;5.67;;;12.10;1.00;;;;;;5114570;27;20473;-78
2021/10/25 10:36:27;;;;;;;6.77;5.37;;;12.10;1.00;;;;;;5110692;27;20445;-78
2021/10/25 10:38:59;;;;;;;6.20;5.60;;;12.10;1.00;;;;;;5111695;27;20445;-78
2021/10/25 10:41:36;;;;;;;10.63;5.80;;;12.10;1.00;;;;;;5112914;27;20536;-77
2021/10/25 10:44:06;;;;;;;6.50;5.50;;;12.30;1.00;;;;;;5112894;27;20525;-77
2021/10/25 10:46:48;;;;;;;7.00;6.30;;;12.30;1.00;;;;;;5112561;27;20452;-80
2021/10/25 10:49:21;;;;;;;8.80;5.77;;;12.20;1.00;;;;;;5114230;27;20426;-79
2021/10/25 10:55:03;;;;;;;9.50;6.00;;;12.30;1.00;;;;;;5093084;27;20458;-79
2021/10/25 10:58:09;;;;;;;6.27;5.70;;;12.40;1.00;;;;;;5113570;27;20503;-78
2021/10/25 11:00:39;;;;;;;7.87;6.00;;;12.40;1.00;;;;;;5113612;27;20460;-79
2021/10/25 11:03:15;;;;;;;8.30;5.50;;;12.50;1.00;;;;;;5112295;27;20453;-79
2021/10/25 11:05:44;;;;;;;7.87;6.07;;;12.40;1.00;;;;;;5114118;27;20440;-78
2021/10/25 11:08:14;;;;;;;7.30;5.80;;;12.40;1.00;;;;;;5114048;27;20441;-80
2021/10/25 11:10:42;;;;;;;9.70;6.00;;;12.50;1.00;;;;;;5108532;27;20477;-78
2021/10/25 11:13:15;;;;;;;9.27;6.20;;;12.60;1.00;;;;;;5109334;27;21479;-79
2021/10/25 11:15:56;;;;;;;7.80;6.10;;;12.70;1.00;;;;;;5110062;27;20540;-79
2021/10/25 11:18:26;;;;;;;8.37;7.50;;;12.60;1.00;;;;;;5107957;27;20448;-78
2021/10/25 11:21:06;;;;;;;9.47;7.03;;;12.60;1.00;;;;;;5111180;27;21041;-80
2021/10/25 11:23:40;;;;;;;9.40;7.20;;;12.50;1.00;;;;;;5127857;27;20398;-79
2021/10/25 11:26:11;;;;;;;7.33;6.23;;;12.60;1.00;;;;;;5131331;27;20493;-79
2021/10/25 11:28:39;;;;;;;7.33;6.40;;;12.90;1.00;;;;;;5115609;27;20934;-79
2021/10/25 11:31:05;;;;;;;8.00;6.73;;;12.90;1.00;;;;;;5109313;27;20495;-80
2021/10/25 11:33:32;;;;;;;10.00;6.60;;;13.00;1.00;;;;;;5109729;27;20549;-79
2021/10/25 11:36:00;;;;;;;7.93;7.10;;;13.30;1.00;;;;;;5112765;27;21123;-78
2021/10/25 11:38:27;;;;;;;7.97;5.70;;;13.60;1.00;;;;;;5107166;27;20540;-78
2021/10/25 11:40:55;;;;;;;7.87;5.80;;;13.80;1.00;;;;;;5104437;27;20476;-79
2021/10/25 11:43:29;;;;;;;8.20;6.20;;;14.20;1.00;;;;;;5109036;27;20447;-80
2021/10/25 11:45:56;;;;;;;7.33;5.93;;;14.70;1.00;;;;;;5106420;27;22249;-80
2021/10/25 11:48:29;;;;;;;8.73;6.43;;;14.80;1.00;;;;;;5095464;27;20449;-79
2021/10/25 11:50:59;;;;;;;8.97;6.50;;;14.60;1.00;;;;;;5108532;27;20468;-78
2021/10/25 11:53:29;;;;;;;8.70;6.53;;;14.70;1.00;;;;;;5109180;27;20436;-81
2021/10/25 11:55:57;;;;;;;11.30;6.40;;;14.50;1.00;;;;;;5108896;27;20450;-80
2021/10/25 11:58:27;;;;;;;6.43;5.63;;;14.40;1.00;;;;;;5111066;27;21042;-78
2021/10/25 12:00:55;;;;;;;9.13;7.20;;;14.40;1.00;;;;;;5112739;27;20465;-81
2021/10/25 12:03:27;;;;;;;7.90;5.80;;;14.60;1.00;;;;;;5100680;27;20483;-80
2021/10/25 12:05:55;;;;;;;7.73;6.73;;;15.60;1.00;;;;;;5120404;27;20478;-79
2021/10/25 12:08:22;;;;;;;6.83;6.10;;;17.10;1.00;;;;;;5114390;27;20452;-78
2021/10/25 12:10:50;;;;;;;9.63;6.00;;;18.00;1.00;;;;;;5102512;27;20405;-78
2021/10/25 12:13:18;;;;;;;8.10;6.30;;;18.60;1.00;;;;;;5105449;27;20445;-78
2021/10/25 12:15:50;;;;;;;7.57;6.47;;;18.40;1.00;;;;;;5119695;27;20453;-78
2021/10/25 12:18:19;;;;;;;8.30;7.40;;;17.80;1.00;;;;;;5110215;27;21192;-77
2021/10/25 12:20:48;;;;;;;7.13;5.90;;;16.90;1.00;;;;;;5110422;27;20532;-79
2021/10/25 12:23:17;;;;;;;6.57;5.93;;;16.30;1.00;;;;;;5112553;27;20469;-77
2021/10/25 12:25:45;;;;;;;9.00;6.47;;;15.80;1.00;;;;;;5110324;27;20418;-78
2021/10/25 12:28:14;;;;;;;8.60;6.33;;;15.40;1.00;;;;;;5106073;27;20453;-78
2021/10/25 12:30:42;;;;;;;7.00;6.40;;;15.30;1.00;;;;;;5112718;27;20473;-78
2021/10/25 12:33:08;;;;;;;8.23;5.87;;;15.10;1.00;;;;;;5108293;27;20459;-77
2021/10/25 12:35:41;;;;;;;8.80;6.80;;;15.00;1.00;;;;;;5110295;27;20526;-77
2021/10/25 12:38:11;;;;;;;7.87;6.20;;;14.60;1.00;;;;;;5113520;27;20526;-78
2021/10/25 12:40:41;;;;;;;9.80;6.60;;;14.30;1.00;;;;;;5111658;27;20434;-76
2021/10/25 12:43:08;;;;;;;9.67;7.50;;;14.00;1.00;;;;;;5103818;27;21488;-76
2021/10/25 12:45:40;;;;;;;9.50;6.83;;;14.00;1.00;;;;;;5087426;27;20968;-77
2021/10/25 12:48:10;;;;;;;8.13;6.87;;;13.80;1.00;;;;;;5118989;27;20669;-79
2021/10/25 12:50:40;;;;;;;8.53;6.47;;;13.40;1.00;;;;;;5109458;27;20462;-79
2021/10/25 12:53:11;;;;;;;9.07;6.97;;;13.60;1.00;;;;;;5103860;27;20486;-78
2021/10/25 12:55:38;;;;;;;8.27;7.37;;;13.80;1.00;;;;;;5111038;27;21343;-79
2021/10/25 12:58:08;;;;;;;8.87;6.60;;;13.70;1.00;;;;;;5109764;27;20465;-78
2021/10/25 13:00:36;;;;;;;9.80;8.40;;;13.90;1.00;;;;;;5114356;27;20438;-75
2021/10/25 13:03:10;;;;;;;9.07;7.30;;;14.30;1.00;;;;;;5110439;27;20463;-78
2021/10/25 13:05:38;;;;;;;8.37;7.57;;;14.60;1.00;;;;;;5091709;27;21407;-77
2021/10/25 13:08:08;;;;;;;9.57;7.67;;;14.60;1.00;;;;;;5087592;27;20461;-77
2021/10/25 13:10:37;;;;;;;8.87;7.93;;;14.40;1.00;;;;;;5106217;27;20439;-77
2021/10/25 13:13:06;;;;;;;9.30;7.10;;;14.20;1.00;;;;;;5103374;27;20469;-80
2021/10/25 13:15:34;;;;;;;8.00;7.30;;;14.10;1.00;;;;;;5104873;27;20453;-77
2021/10/25 13:18:02;;;;;;;9.40;7.67;;;13.90;1.00;;;;;;5102322;27;20436;-77
2021/10/25 13:20:32;;;;;;;8.97;7.43;;;13.90;1.00;;;;;;5111833;27;20550;-78
2021/10/25 13:23:02;;;;;;;9.60;7.70;;;13.60;1.00;;;;;;5129138;27;20908;-78
2021/10/25 13:25:30;;;;;;;7.40;6.50;;;13.50;1.00;;;;;;5108002;27;20441;-76
2021/10/25 13:27:58;;;;;;;9.93;8.80;;;13.50;1.00;;;;;;5110095;27;21497;-78
2021/10/25 13:30:25;;;;;;;8.27;7.33;;;13.60;1.00;;;;;;5105590;27;20463;-78
2021/10/25 13:32:53;;;;;;;9.40;7.60;;;13.50;1.00;;;;;;5092793;27;21611;-79
2021/10/25 13:35:20;;;;;;;6.93;6.23;;;13.60;1.00;;;;;;5106328;27;20535;-79
2021/10/25 13:37:52;;;;;;;7.07;6.33;;;13.60;1.00;;;;;;5105590;27;20567;-78
2021/10/25 13:40:20;;;;;;;7.30;6.50;;;13.50;1.00;;;;;;5106325;27;20466;-77
2021/10/25 13:42:48;;;;;;;10.20;7.60;;;13.60;1.00;;;;;;5105393;27;20948;-78
2021/10/25 13:45:15;;;;;;;13.07;7.70;;;13.60;1.00;;;;;;5106882;27;20465;-77
2021/10/25 13:47:41;;;;;;;8.07;7.27;;;13.60;1.00;;;;;;5103907;27;20449;-78
2021/10/25 13:50:09;;;;;;;12.43;8.40;;;13.30;1.00;;;;;;5105588;27;20468;-80
2021/10/25 13:52:36;;;;;;;8.33;6.70;;;13.10;1.00;;;;;;5102427;27;20446;-77
2021/10/25 13:55:07;;;;;;;9.23;7.13;;;13.00;1.00;;;;;;5105231;27;20478;-78
2021/10/25 13:57:38;;;;;;;8.63;6.13;;;13.00;1.00;;;;;;5106610;27;20434;-78
2021/10/25 14:00:06;;;;;;;7.37;6.60;;;13.10;1.00;;;;;;5108321;27;20486;-77
2021/10/25 14:02:33;;;;;;;7.07;6.30;;;13.20;1.00;;;;;;5085353;27;20449;-78
2021/10/25 14:04:59;;;;;;;8.70;7.20;;;13.20;1.00;;;;;;5085214;27;20494;-78
2021/10/25 14:07:31;;;;;;;10.10;6.70;;;13.20;1.00;;;;;;5109589;27;20466;-78
2021/10/25 14:10:06;;;;;;;8.13;7.37;;;13.10;1.00;;;;;;5090049;27;20499;-79
2021/10/25 14:12:36;;;;;;;6.93;5.43;;;13.00;1.00;;;;;;5118384;27;20494;-78
2021/10/25 14:15:17;;;;;;;9.07;6.63;;;12.90;1.00;;;;;;5106979;27;20569;-78
2021/10/25 14:17:44;;;;;;;7.53;6.73;;;12.70;1.00;;;;;;5116429;27;20413;-78
2021/10/25 14:20:12;;;;;;;10.70;6.80;;;12.60;1.00;;;;;;5124587;27;20446;-78